sensor_id;sensor_type;location;lat;lon;timestamp;P1;durP1;ratioP1;P2;durP2;ratioP2
28483;SDS011;15704;48.834;8.736;2023-05-10T00:01:26;0.38;;;0.30;;
28483;SDS011;15704;48.834;8.736;2023-05-10T00:03:53;1.98;;;0.30;;
28483;SDS011;15704;48.834;8.736;2023-05-10T00:06:20;1.17;;;0.30;;
28483;SDS011;15704;48.834;8.736;2023-05-10T00:08:47;0.65;;;0.20;;
28483;SDS011;15704;48.834;8.736;2023-05-10T00:11:13;0.77;;;0.60;;
28483;SDS011;15704;48.834;8.736;2023-05-10T00:13:40;0.25;;;0.25;;
28483;SDS011;15704;48.834;8.736;2023-05-10T00:16:07;1.20;;;0.32;;
28483;SDS011;15704;48.834;8.736;2023-05-10T00:18:34;0.65;;;0.32;;
28483;SDS011;15704;48.834;8.736;2023-05-10T00:21:00;0.43;;;0.30;;
28483;SDS011;15704;48.834;8.736;2023-05-10T00:23:27;4.97;;;0.50;;
28483;SDS011;15704;48.834;8.736;2023-05-10T00:25:54;0.50;;;0.50;;
28483;SDS011;15704;48.834;8.736;2023-05-10T00:28:21;0.70;;;0.50;;
28483;SDS011;15704;48.834;8.736;2023-05-10T00:30:47;0.40;;;0.40;;
28483;SDS011;15704;48.834;8.736;2023-05-10T00:33:14;1.58;;;0.60;;
28483;SDS011;15704;48.834;8.736;2023-05-10T00:35:41;0.55;;;0.43;;
28483;SDS011;15704;48.834;8.736;2023-05-10T00:38:07;0.68;;;0.60;;
28483;SDS011;15704;48.834;8.736;2023-05-10T00:40:35;0.50;;;0.32;;
28483;SDS011;15704;48.834;8.736;2023-05-10T00:43:03;2.63;;;0.75;;
28483;SDS011;15704;48.834;8.736;2023-05-10T00:45:30;2.83;;;0.70;;
28483;SDS011;15704;48.834;8.736;2023-05-10T00:47:59;0.60;;;0.60;;
28483;SDS011;15704;48.834;8.736;2023-05-10T00:50:28;1.63;;;0.85;;
28483;SDS011;15704;48.834;8.736;2023-05-10T00:52:55;0.70;;;0.70;;
28483;SDS011;15704;48.834;8.736;2023-05-10T00:55:22;2.17;;;0.93;;
28483;SDS011;15704;48.834;8.736;2023-05-10T00:57:49;1.30;;;0.82;;
28483;SDS011;15704;48.834;8.736;2023-05-10T01:00:17;2.20;;;0.88;;
28483;SDS011;15704;48.834;8.736;2023-05-10T01:02:44;0.80;;;0.73;;
28483;SDS011;15704;48.834;8.736;2023-05-10T01:05:12;3.47;;;1.00;;
28483;SDS011;15704;48.834;8.736;2023-05-10T01:07:39;6.22;;;1.58;;
28483;SDS011;15704;48.834;8.736;2023-05-10T01:10:07;0.73;;;0.73;;
28483;SDS011;15704;48.834;8.736;2023-05-10T01:12:39;1.67;;;0.82;;
28483;SDS011;15704;48.834;8.736;2023-05-10T01:15:07;1.00;;;0.80;;
28483;SDS011;15704;48.834;8.736;2023-05-10T01:17:35;3.33;;;1.13;;
28483;SDS011;15704;48.834;8.736;2023-05-10T01:20:04;2.17;;;1.02;;
28483;SDS011;15704;48.834;8.736;2023-05-10T01:22:41;1.33;;;0.82;;
28483;SDS011;15704;48.834;8.736;2023-05-10T01:33:46;1.20;;;1.10;;
28483;SDS011;15704;48.834;8.736;2023-05-10T01:37:16;1.27;;;0.85;;
28483;SDS011;15704;48.834;8.736;2023-05-10T01:39:24;1.33;;;0.90;;
28483;SDS011;15704;48.834;8.736;2023-05-10T01:42:10;1.50;;;1.17;;
28483;SDS011;15704;48.834;8.736;2023-05-10T01:50:10;1.85;;;1.20;;
28483;SDS011;15704;48.834;8.736;2023-05-10T01:52:44;4.70;;;1.40;;
28483;SDS011;15704;48.834;8.736;2023-05-10T01:55:21;1.63;;;1.52;;
28483;SDS011;15704;48.834;8.736;2023-05-10T01:57:52;2.63;;;2.03;;
28483;SDS011;15704;48.834;8.736;2023-05-10T02:00:26;2.28;;;1.90;;
28483;SDS011;15704;48.834;8.736;2023-05-10T02:02:54;2.17;;;1.95;;
28483;SDS011;15704;48.834;8.736;2023-05-10T02:05:22;2.33;;;1.83;;
28483;SDS011;15704;48.834;8.736;2023-05-10T02:07:50;3.88;;;1.50;;
28483;SDS011;15704;48.834;8.736;2023-05-10T02:10:18;4.70;;;1.80;;
28483;SDS011;15704;48.834;8.736;2023-05-10T02:12:46;8.20;;;1.88;;
28483;SDS011;15704;48.834;8.736;2023-05-10T02:15:16;2.15;;;1.88;;
28483;SDS011;15704;48.834;8.736;2023-05-10T02:17:45;4.53;;;2.00;;
28483;SDS011;15704;48.834;8.736;2023-05-10T02:20:13;2.75;;;1.88;;
28483;SDS011;15704;48.834;8.736;2023-05-10T02:22:42;2.83;;;2.08;;
28483;SDS011;15704;48.834;8.736;2023-05-10T02:25:10;2.40;;;2.20;;
28483;SDS011;15704;48.834;8.736;2023-05-10T02:27:40;5.13;;;1.83;;
28483;SDS011;15704;48.834;8.736;2023-05-10T02:30:09;2.63;;;2.10;;
28483;SDS011;15704;48.834;8.736;2023-05-10T02:32:37;4.45;;;1.92;;
28483;SDS011;15704;48.834;8.736;2023-05-10T02:35:05;3.35;;;1.85;;
28483;SDS011;15704;48.834;8.736;2023-05-10T02:37:33;3.20;;;2.55;;
28483;SDS011;15704;48.834;8.736;2023-05-10T02:40:01;3.42;;;2.13;;
28483;SDS011;15704;48.834;8.736;2023-05-10T02:42:29;3.55;;;2.20;;
28483;SDS011;15704;48.834;8.736;2023-05-10T02:44:59;5.50;;;2.45;;
28483;SDS011;15704;48.834;8.736;2023-05-10T02:47:30;4.32;;;2.30;;
28483;SDS011;15704;48.834;8.736;2023-05-10T02:49:57;2.70;;;2.20;;
28483;SDS011;15704;48.834;8.736;2023-05-10T02:52:25;2.38;;;2.17;;
28483;SDS011;15704;48.834;8.736;2023-05-10T02:54:56;3.63;;;2.30;;
28483;SDS011;15704;48.834;8.736;2023-05-10T02:57:27;7.90;;;4.00;;
28483;SDS011;15704;48.834;8.736;2023-05-10T02:59:57;7.13;;;3.20;;
28483;SDS011;15704;48.834;8.736;2023-05-10T03:02:26;3.05;;;2.70;;
28483;SDS011;15704;48.834;8.736;2023-05-10T03:04:53;3.78;;;1.88;;
28483;SDS011;15704;48.834;8.736;2023-05-10T03:07:20;4.07;;;1.92;;
28483;SDS011;15704;48.834;8.736;2023-05-10T03:09:50;2.47;;;1.98;;
28483;SDS011;15704;48.834;8.736;2023-05-10T03:18:12;1.50;;;1.17;;
28483;SDS011;15704;48.834;8.736;2023-05-10T03:20:44;1.85;;;1.40;;
28483;SDS011;15704;48.834;8.736;2023-05-10T03:25:44;2.40;;;1.50;;
28483;SDS011;15704;48.834;8.736;2023-05-10T03:28:14;3.50;;;1.52;;
28483;SDS011;15704;48.834;8.736;2023-05-10T03:30:42;1.45;;;1.35;;
28483;SDS011;15704;48.834;8.736;2023-05-10T03:33:11;3.92;;;1.30;;
28483;SDS011;15704;48.834;8.736;2023-05-10T03:35:38;1.33;;;1.23;;
28483;SDS011;15704;48.834;8.736;2023-05-10T03:38:05;2.25;;;1.20;;
28483;SDS011;15704;48.834;8.736;2023-05-10T03:40:32;1.45;;;1.35;;
28483;SDS011;15704;48.834;8.736;2023-05-10T03:42:59;2.03;;;1.40;;
28483;SDS011;15704;48.834;8.736;2023-05-10T03:45:26;3.10;;;1.60;;
28483;SDS011;15704;48.834;8.736;2023-05-10T03:47:53;2.90;;;1.50;;
28483;SDS011;15704;48.834;8.736;2023-05-10T03:50:20;3.38;;;1.58;;
28483;SDS011;15704;48.834;8.736;2023-05-10T03:52:47;3.13;;;1.65;;
28483;SDS011;15704;48.834;8.736;2023-05-10T03:55:14;2.50;;;1.60;;
28483;SDS011;15704;48.834;8.736;2023-05-10T03:57:41;2.85;;;1.48;;
28483;SDS011;15704;48.834;8.736;2023-05-10T04:00:08;1.55;;;1.38;;
28483;SDS011;15704;48.834;8.736;2023-05-10T04:02:35;3.95;;;1.52;;
28483;SDS011;15704;48.834;8.736;2023-05-10T04:05:03;2.25;;;1.70;;
28483;SDS011;15704;48.834;8.736;2023-05-10T04:07:30;2.20;;;1.60;;
28483;SDS011;15704;48.834;8.736;2023-05-10T04:09:57;6.22;;;1.80;;
28483;SDS011;15704;48.834;8.736;2023-05-10T04:12:24;2.92;;;1.50;;
28483;SDS011;15704;48.834;8.736;2023-05-10T04:14:50;3.05;;;1.65;;
28483;SDS011;15704;48.834;8.736;2023-05-10T04:17:17;3.00;;;2.03;;
28483;SDS011;15704;48.834;8.736;2023-05-10T04:19:44;2.90;;;1.92;;
28483;SDS011;15704;48.834;8.736;2023-05-10T04:22:11;3.53;;;2.40;;
28483;SDS011;15704;48.834;8.736;2023-05-10T04:24:37;2.00;;;1.80;;
28483;SDS011;15704;48.834;8.736;2023-05-10T04:27:05;3.10;;;1.75;;
28483;SDS011;15704;48.834;8.736;2023-05-10T04:29:32;2.30;;;1.85;;
28483;SDS011;15704;48.834;8.736;2023-05-10T04:31:58;2.88;;;1.73;;
28483;SDS011;15704;48.834;8.736;2023-05-10T04:34:25;2.20;;;1.63;;
28483;SDS011;15704;48.834;8.736;2023-05-10T04:36:52;2.33;;;2.13;;
28483;SDS011;15704;48.834;8.736;2023-05-10T04:39:18;3.40;;;1.80;;
28483;SDS011;15704;48.834;8.736;2023-05-10T04:41:45;5.82;;;2.72;;
28483;SDS011;15704;48.834;8.736;2023-05-10T04:44:12;2.72;;;1.88;;
28483;SDS011;15704;48.834;8.736;2023-05-10T04:46:38;2.58;;;1.83;;
28483;SDS011;15704;48.834;8.736;2023-05-10T04:49:05;2.92;;;2.08;;
28483;SDS011;15704;48.834;8.736;2023-05-10T04:51:32;5.28;;;2.35;;
28483;SDS011;15704;48.834;8.736;2023-05-10T04:53:59;2.20;;;1.63;;
28483;SDS011;15704;48.834;8.736;2023-05-10T04:56:32;2.60;;;2.00;;
28483;SDS011;15704;48.834;8.736;2023-05-10T04:58:58;2.90;;;2.15;;
28483;SDS011;15704;48.834;8.736;2023-05-10T05:01:25;4.40;;;2.10;;
28483;SDS011;15704;48.834;8.736;2023-05-10T05:03:52;2.78;;;2.13;;
28483;SDS011;15704;48.834;8.736;2023-05-10T05:06:19;2.97;;;1.70;;
28483;SDS011;15704;48.834;8.736;2023-05-10T05:08:47;4.75;;;2.50;;
28483;SDS011;15704;48.834;8.736;2023-05-10T05:11:15;3.50;;;2.35;;
28483;SDS011;15704;48.834;8.736;2023-05-10T05:13:43;2.70;;;2.25;;
28483;SDS011;15704;48.834;8.736;2023-05-10T05:16:09;3.65;;;2.05;;
28483;SDS011;15704;48.834;8.736;2023-05-10T05:18:37;3.45;;;2.28;;
28483;SDS011;15704;48.834;8.736;2023-05-10T05:21:13;7.18;;;2.53;;
28483;SDS011;15704;48.834;8.736;2023-05-10T05:23:41;6.28;;;2.22;;
28483;SDS011;15704;48.834;8.736;2023-05-10T05:26:07;5.57;;;2.20;;
28483;SDS011;15704;48.834;8.736;2023-05-10T05:28:34;3.05;;;2.15;;
28483;SDS011;15704;48.834;8.736;2023-05-10T05:31:06;2.45;;;2.25;;
28483;SDS011;15704;48.834;8.736;2023-05-10T05:33:36;2.85;;;2.05;;
28483;SDS011;15704;48.834;8.736;2023-05-10T05:36:03;10.15;;;2.80;;
28483;SDS011;15704;48.834;8.736;2023-05-10T05:38:31;4.35;;;2.22;;
28483;SDS011;15704;48.834;8.736;2023-05-10T05:40:58;2.58;;;1.67;;
28483;SDS011;15704;48.834;8.736;2023-05-10T05:43:25;5.20;;;1.85;;
28483;SDS011;15704;48.834;8.736;2023-05-10T05:45:52;4.47;;;2.05;;
28483;SDS011;15704;48.834;8.736;2023-05-10T05:48:20;3.25;;;2.13;;
28483;SDS011;15704;48.834;8.736;2023-05-10T05:50:47;1.73;;;1.35;;
28483;SDS011;15704;48.834;8.736;2023-05-10T05:53:13;2.28;;;1.67;;
28483;SDS011;15704;48.834;8.736;2023-05-10T05:55:40;3.72;;;1.55;;
28483;SDS011;15704;48.834;8.736;2023-05-10T05:58:16;3.13;;;1.60;;
28483;SDS011;15704;48.834;8.736;2023-05-10T06:00:43;1.77;;;1.15;;
28483;SDS011;15704;48.834;8.736;2023-05-10T06:03:09;2.47;;;1.33;;
28483;SDS011;15704;48.834;8.736;2023-05-10T06:05:36;3.15;;;1.20;;
28483;SDS011;15704;48.834;8.736;2023-05-10T06:08:03;2.90;;;1.10;;
28483;SDS011;15704;48.834;8.736;2023-05-10T06:10:30;6.53;;;1.20;;
28483;SDS011;15704;48.834;8.736;2023-05-10T06:12:57;3.30;;;1.67;;
28483;SDS011;15704;48.834;8.736;2023-05-10T06:15:24;1.20;;;1.10;;
28483;SDS011;15704;48.834;8.736;2023-05-10T06:17:50;3.25;;;1.10;;
28483;SDS011;15704;48.834;8.736;2023-05-10T06:20:17;6.35;;;1.42;;
28483;SDS011;15704;48.834;8.736;2023-05-10T06:22:44;3.30;;;1.00;;
28483;SDS011;15704;48.834;8.736;2023-05-10T06:25:11;1.10;;;0.70;;
28483;SDS011;15704;48.834;8.736;2023-05-10T06:27:38;2.03;;;1.60;;
28483;SDS011;15704;48.834;8.736;2023-05-10T06:30:05;0.90;;;0.75;;
28483;SDS011;15704;48.834;8.736;2023-05-10T06:32:38;1.45;;;0.93;;
28483;SDS011;15704;48.834;8.736;2023-05-10T06:35:05;1.40;;;0.70;;
28483;SDS011;15704;48.834;8.736;2023-05-10T06:37:32;6.68;;;0.90;;
28483;SDS011;15704;48.834;8.736;2023-05-10T06:40:00;0.65;;;0.60;;
28483;SDS011;15704;48.834;8.736;2023-05-10T06:42:27;5.10;;;0.93;;
28483;SDS011;15704;48.834;8.736;2023-05-10T06:44:54;0.57;;;0.52;;
28483;SDS011;15704;48.834;8.736;2023-05-10T06:47:21;4.28;;;0.70;;
28483;SDS011;15704;48.834;8.736;2023-05-10T06:49:48;1.92;;;1.15;;
28483;SDS011;15704;48.834;8.736;2023-05-10T06:52:14;0.43;;;0.43;;
28483;SDS011;15704;48.834;8.736;2023-05-10T06:54:41;0.73;;;0.52;;
28483;SDS011;15704;48.834;8.736;2023-05-10T06:57:08;0.93;;;0.70;;
28483;SDS011;15704;48.834;8.736;2023-05-10T06:59:54;6.10;;;0.60;;
28483;SDS011;15704;48.834;8.736;2023-05-10T07:02:22;3.25;;;0.57;;
28483;SDS011;15704;48.834;8.736;2023-05-10T07:04:49;1.50;;;0.60;;
28483;SDS011;15704;48.834;8.736;2023-05-10T07:07:18;0.35;;;0.35;;
28483;SDS011;15704;48.834;8.736;2023-05-10T07:09:45;1.38;;;0.73;;
28483;SDS011;15704;48.834;8.736;2023-05-10T07:12:11;1.20;;;0.43;;
28483;SDS011;15704;48.834;8.736;2023-05-10T07:14:40;3.03;;;0.60;;
28483;SDS011;15704;48.834;8.736;2023-05-10T07:17:07;0.40;;;0.40;;
28483;SDS011;15704;48.834;8.736;2023-05-10T07:19:34;0.98;;;0.35;;
28483;SDS011;15704;48.834;8.736;2023-05-10T07:22:01;2.38;;;0.82;;
28483;SDS011;15704;48.834;8.736;2023-05-10T07:24:28;1.35;;;0.45;;
28483;SDS011;15704;48.834;8.736;2023-05-10T07:26:57;1.25;;;0.35;;
28483;SDS011;15704;48.834;8.736;2023-05-10T07:29:23;1.30;;;0.43;;
28483;SDS011;15704;48.834;8.736;2023-05-10T07:31:50;0.65;;;0.63;;
28483;SDS011;15704;48.834;8.736;2023-05-10T07:34:17;2.00;;;0.80;;
28483;SDS011;15704;48.834;8.736;2023-05-10T07:36:44;2.80;;;0.45;;
28483;SDS011;15704;48.834;8.736;2023-05-10T07:39:10;5.18;;;0.63;;
28483;SDS011;15704;48.834;8.736;2023-05-10T07:41:46;0.88;;;0.52;;
28483;SDS011;15704;48.834;8.736;2023-05-10T07:44:13;0.52;;;0.43;;
28483;SDS011;15704;48.834;8.736;2023-05-10T07:46:40;0.82;;;0.77;;
28483;SDS011;15704;48.834;8.736;2023-05-10T07:49:06;0.77;;;0.55;;
28483;SDS011;15704;48.834;8.736;2023-05-10T07:51:33;9.60;;;3.58;;
28483;SDS011;15704;48.834;8.736;2023-05-10T07:54:00;1.92;;;0.88;;
28483;SDS011;15704;48.834;8.736;2023-05-10T07:56:29;4.80;;;0.40;;
28483;SDS011;15704;48.834;8.736;2023-05-10T07:58:58;0.90;;;0.50;;
28483;SDS011;15704;48.834;8.736;2023-05-10T08:01:26;8.32;;;0.63;;
28483;SDS011;15704;48.834;8.736;2023-05-10T08:03:53;2.72;;;0.50;;
28483;SDS011;15704;48.834;8.736;2023-05-10T08:06:20;0.95;;;0.40;;
28483;SDS011;15704;48.834;8.736;2023-05-10T08:08:47;2.72;;;0.50;;
28483;SDS011;15704;48.834;8.736;2023-05-10T08:11:20;2.40;;;0.40;;
28483;SDS011;15704;48.834;8.736;2023-05-10T08:13:47;1.15;;;0.50;;
28483;SDS011;15704;48.834;8.736;2023-05-10T08:16:16;1.85;;;0.40;;
28483;SDS011;15704;48.834;8.736;2023-05-10T08:18:43;1.00;;;0.30;;
28483;SDS011;15704;48.834;8.736;2023-05-10T08:21:13;0.47;;;0.30;;
28483;SDS011;15704;48.834;8.736;2023-05-10T08:23:40;0.65;;;0.50;;
28483;SDS011;15704;48.834;8.736;2023-05-10T08:26:07;0.30;;;0.30;;
28483;SDS011;15704;48.834;8.736;2023-05-10T08:28:34;0.30;;;0.30;;
28483;SDS011;15704;48.834;8.736;2023-05-10T08:31:00;3.17;;;0.40;;
28483;SDS011;15704;48.834;8.736;2023-05-10T08:33:27;1.35;;;0.38;;
28483;SDS011;15704;48.834;8.736;2023-05-10T08:35:54;0.85;;;0.30;;
28483;SDS011;15704;48.834;8.736;2023-05-10T08:38:21;3.30;;;0.65;;
28483;SDS011;15704;48.834;8.736;2023-05-10T08:40:47;1.25;;;0.40;;
28483;SDS011;15704;48.834;8.736;2023-05-10T08:43:16;1.17;;;0.50;;
28483;SDS011;15704;48.834;8.736;2023-05-10T08:45:44;0.43;;;0.40;;
28483;SDS011;15704;48.834;8.736;2023-05-10T08:48:13;2.92;;;0.50;;
28483;SDS011;15704;48.834;8.736;2023-05-10T08:50:41;1.40;;;0.50;;
28483;SDS011;15704;48.834;8.736;2023-05-10T08:53:09;3.50;;;0.32;;
28483;SDS011;15704;48.834;8.736;2023-05-10T08:55:37;1.23;;;0.40;;
28483;SDS011;15704;48.834;8.736;2023-05-10T08:58:06;2.33;;;0.68;;
28483;SDS011;15704;48.834;8.736;2023-05-10T09:00:33;1.98;;;0.60;;
28483;SDS011;15704;48.834;8.736;2023-05-10T09:03:02;3.00;;;0.50;;
28483;SDS011;15704;48.834;8.736;2023-05-10T09:05:30;6.47;;;0.50;;
28483;SDS011;15704;48.834;8.736;2023-05-10T09:07:57;0.40;;;0.40;;
28483;SDS011;15704;48.834;8.736;2023-05-10T09:10:26;0.55;;;0.40;;
28483;SDS011;15704;48.834;8.736;2023-05-10T09:12:58;0.80;;;0.40;;
28483;SDS011;15704;48.834;8.736;2023-05-10T09:15:25;0.35;;;0.35;;
28483;SDS011;15704;48.834;8.736;2023-05-10T09:17:52;1.15;;;0.60;;
28483;SDS011;15704;48.834;8.736;2023-05-10T09:20:20;0.38;;;0.38;;
28483;SDS011;15704;48.834;8.736;2023-05-10T09:22:47;2.17;;;0.40;;
28483;SDS011;15704;48.834;8.736;2023-05-10T09:25:14;1.02;;;0.40;;
28483;SDS011;15704;48.834;8.736;2023-05-10T09:27:46;1.10;;;0.55;;
28483;SDS011;15704;48.834;8.736;2023-05-10T09:30:19;1.67;;;0.50;;
28483;SDS011;15704;48.834;8.736;2023-05-10T09:32:50;1.13;;;0.47;;
28483;SDS011;15704;48.834;8.736;2023-05-10T09:35:18;0.80;;;0.60;;
28483;SDS011;15704;48.834;8.736;2023-05-10T09:37:47;1.02;;;0.50;;
28483;SDS011;15704;48.834;8.736;2023-05-10T09:40:22;1.52;;;0.40;;
28483;SDS011;15704;48.834;8.736;2023-05-10T09:42:51;0.30;;;0.30;;
28483;SDS011;15704;48.834;8.736;2023-05-10T09:45:18;1.17;;;0.50;;
28483;SDS011;15704;48.834;8.736;2023-05-10T09:47:45;0.90;;;0.50;;
28483;SDS011;15704;48.834;8.736;2023-05-10T09:50:12;7.32;;;0.60;;
28483;SDS011;15704;48.834;8.736;2023-05-10T09:52:46;2.50;;;0.55;;
28483;SDS011;15704;48.834;8.736;2023-05-10T09:55:14;0.50;;;0.30;;
28483;SDS011;15704;48.834;8.736;2023-05-10T09:57:42;0.57;;;0.35;;
28483;SDS011;15704;48.834;8.736;2023-05-10T10:00:09;1.63;;;0.45;;
28483;SDS011;15704;48.834;8.736;2023-05-10T10:02:36;2.42;;;0.40;;
28483;SDS011;15704;48.834;8.736;2023-05-10T10:05:03;0.90;;;0.57;;
28483;SDS011;15704;48.834;8.736;2023-05-10T10:07:32;1.70;;;0.50;;
28483;SDS011;15704;48.834;8.736;2023-05-10T10:10:00;1.40;;;0.40;;
28483;SDS011;15704;48.834;8.736;2023-05-10T10:12:27;1.15;;;0.60;;
28483;SDS011;15704;48.834;8.736;2023-05-10T10:14:54;0.52;;;0.43;;
28483;SDS011;15704;48.834;8.736;2023-05-10T10:17:22;0.57;;;0.57;;
28483;SDS011;15704;48.834;8.736;2023-05-10T10:19:52;0.63;;;0.50;;
28483;SDS011;15704;48.834;8.736;2023-05-10T10:22:20;1.10;;;0.43;;
28483;SDS011;15704;48.834;8.736;2023-05-10T10:24:47;2.65;;;0.50;;
28483;SDS011;15704;48.834;8.736;2023-05-10T10:30:01;1.20;;;0.55;;
28483;SDS011;15704;48.834;8.736;2023-05-10T10:35:21;5.38;;;1.10;;
28483;SDS011;15704;48.834;8.736;2023-05-10T10:37:49;2.30;;;0.80;;
28483;SDS011;15704;48.834;8.736;2023-05-10T10:42:54;1.17;;;0.73;;
28483;SDS011;15704;48.834;8.736;2023-05-10T10:45:22;3.42;;;1.15;;
28483;SDS011;15704;48.834;8.736;2023-05-10T10:47:53;6.53;;;0.95;;
28483;SDS011;15704;48.834;8.736;2023-05-10T10:50:43;11.25;;;1.92;;
28483;SDS011;15704;48.834;8.736;2023-05-10T10:53:11;6.68;;;2.65;;
28483;SDS011;15704;48.834;8.736;2023-05-10T10:55:48;3.00;;;0.70;;
28483;SDS011;15704;48.834;8.736;2023-05-10T10:58:30;1.73;;;0.68;;
28483;SDS011;15704;48.834;8.736;2023-05-10T11:06:31;0.95;;;0.70;;
28483;SDS011;15704;48.834;8.736;2023-05-10T11:09:04;2.40;;;0.60;;
28483;SDS011;15704;48.834;8.736;2023-05-10T11:11:36;0.98;;;0.55;;
28483;SDS011;15704;48.834;8.736;2023-05-10T11:14:14;3.53;;;0.85;;
28483;SDS011;15704;48.834;8.736;2023-05-10T11:16:47;1.42;;;0.68;;
28483;SDS011;15704;48.834;8.736;2023-05-10T11:19:15;1.70;;;0.60;;
28483;SDS011;15704;48.834;8.736;2023-05-10T11:21:49;3.22;;;0.75;;
28483;SDS011;15704;48.834;8.736;2023-05-10T11:24:37;2.50;;;0.77;;
28483;SDS011;15704;48.834;8.736;2023-05-10T11:27:03;1.15;;;0.50;;
28483;SDS011;15704;48.834;8.736;2023-05-10T11:29:30;1.77;;;0.60;;
28483;SDS011;15704;48.834;8.736;2023-05-10T11:31:58;1.17;;;0.50;;
28483;SDS011;15704;48.834;8.736;2023-05-10T11:34:29;1.25;;;0.50;;
28483;SDS011;15704;48.834;8.736;2023-05-10T11:36:57;3.13;;;0.60;;
28483;SDS011;15704;48.834;8.736;2023-05-10T11:39:27;1.73;;;0.70;;
28483;SDS011;15704;48.834;8.736;2023-05-10T11:41:56;0.93;;;0.50;;
28483;SDS011;15704;48.834;8.736;2023-05-10T11:44:23;1.08;;;0.60;;
28483;SDS011;15704;48.834;8.736;2023-05-10T11:46:57;2.75;;;0.73;;
28483;SDS011;15704;48.834;8.736;2023-05-10T11:49:27;1.55;;;0.55;;
28483;SDS011;15704;48.834;8.736;2023-05-10T11:52:03;4.57;;;0.52;;
28483;SDS011;15704;48.834;8.736;2023-05-10T11:54:33;0.75;;;0.40;;
28483;SDS011;15704;48.834;8.736;2023-05-10T11:57:03;1.20;;;0.47;;
28483;SDS011;15704;48.834;8.736;2023-05-10T11:59:30;4.88;;;0.88;;
28483;SDS011;15704;48.834;8.736;2023-05-10T12:01:57;2.17;;;0.80;;
28483;SDS011;15704;48.834;8.736;2023-05-10T12:04:23;7.90;;;0.95;;
28483;SDS011;15704;48.834;8.736;2023-05-10T12:06:51;1.60;;;0.50;;
28483;SDS011;15704;48.834;8.736;2023-05-10T12:09:18;2.13;;;0.63;;
28483;SDS011;15704;48.834;8.736;2023-05-10T12:12:05;1.52;;;0.77;;
28483;SDS011;15704;48.834;8.736;2023-05-10T12:14:33;2.30;;;0.80;;
28483;SDS011;15704;48.834;8.736;2023-05-10T12:17:01;2.53;;;0.82;;
28483;SDS011;15704;48.834;8.736;2023-05-10T12:19:28;3.15;;;0.73;;
28483;SDS011;15704;48.834;8.736;2023-05-10T12:22:04;2.00;;;0.70;;
28483;SDS011;15704;48.834;8.736;2023-05-10T12:24:33;5.80;;;0.77;;
28483;SDS011;15704;48.834;8.736;2023-05-10T12:27:04;1.15;;;0.70;;
28483;SDS011;15704;48.834;8.736;2023-05-10T12:29:34;2.70;;;0.85;;
28483;SDS011;15704;48.834;8.736;2023-05-10T12:32:01;0.98;;;0.60;;
28483;SDS011;15704;48.834;8.736;2023-05-10T12:34:32;5.47;;;0.90;;
28483;SDS011;15704;48.834;8.736;2023-05-10T12:37:02;1.85;;;0.70;;
28483;SDS011;15704;48.834;8.736;2023-05-10T12:39:38;1.45;;;0.60;;
28483;SDS011;15704;48.834;8.736;2023-05-10T12:42:09;1.65;;;0.60;;
28483;SDS011;15704;48.834;8.736;2023-05-10T12:44:37;1.42;;;0.55;;
28483;SDS011;15704;48.834;8.736;2023-05-10T12:47:03;2.20;;;0.70;;
28483;SDS011;15704;48.834;8.736;2023-05-10T12:49:30;1.90;;;0.50;;
28483;SDS011;15704;48.834;8.736;2023-05-10T12:51:57;1.25;;;0.77;;
28483;SDS011;15704;48.834;8.736;2023-05-10T12:54:24;6.13;;;1.60;;
28483;SDS011;15704;48.834;8.736;2023-05-10T12:56:50;4.03;;;0.77;;
28483;SDS011;15704;48.834;8.736;2023-05-10T12:59:17;6.68;;;1.85;;
28483;SDS011;15704;48.834;8.736;2023-05-10T13:01:44;2.53;;;0.52;;
28483;SDS011;15704;48.834;8.736;2023-05-10T13:04:11;1.65;;;0.52;;
28483;SDS011;15704;48.834;8.736;2023-05-10T13:06:38;3.08;;;0.60;;
28483;SDS011;15704;48.834;8.736;2023-05-10T13:09:04;2.53;;;0.52;;
28483;SDS011;15704;48.834;8.736;2023-05-10T13:11:31;0.50;;;0.45;;
28483;SDS011;15704;48.834;8.736;2023-05-10T13:13:58;6.03;;;0.70;;
28483;SDS011;15704;48.834;8.736;2023-05-10T13:16:25;1.85;;;0.60;;
28483;SDS011;15704;48.834;8.736;2023-05-10T13:18:52;3.42;;;0.98;;
28483;SDS011;15704;48.834;8.736;2023-05-10T13:21:18;3.30;;;0.73;;
28483;SDS011;15704;48.834;8.736;2023-05-10T13:23:45;1.38;;;0.77;;
28483;SDS011;15704;48.834;8.736;2023-05-10T13:26:12;4.82;;;0.73;;
28483;SDS011;15704;48.834;8.736;2023-05-10T13:28:39;1.95;;;0.80;;
28483;SDS011;15704;48.834;8.736;2023-05-10T13:31:06;1.65;;;0.50;;
28483;SDS011;15704;48.834;8.736;2023-05-10T13:33:33;2.20;;;0.63;;
28483;SDS011;15704;48.834;8.736;2023-05-10T13:36:00;6.65;;;0.60;;
28483;SDS011;15704;48.834;8.736;2023-05-10T13:38:27;2.83;;;0.55;;
28483;SDS011;15704;48.834;8.736;2023-05-10T13:40:54;6.82;;;0.70;;
28483;SDS011;15704;48.834;8.736;2023-05-10T13:43:21;1.02;;;0.77;;
28483;SDS011;15704;48.834;8.736;2023-05-10T13:45:48;0.95;;;0.60;;
28483;SDS011;15704;48.834;8.736;2023-05-10T13:48:14;4.32;;;0.73;;
28483;SDS011;15704;48.834;8.736;2023-05-10T13:50:41;0.60;;;0.35;;
28483;SDS011;15704;48.834;8.736;2023-05-10T13:53:08;2.08;;;0.52;;
28483;SDS011;15704;48.834;8.736;2023-05-10T13:55:35;1.17;;;0.47;;
28483;SDS011;15704;48.834;8.736;2023-05-10T13:58:02;2.47;;;0.75;;
28483;SDS011;15704;48.834;8.736;2023-05-10T14:00:29;6.20;;;0.80;;
28483;SDS011;15704;48.834;8.736;2023-05-10T14:02:55;1.38;;;0.47;;
28483;SDS011;15704;48.834;8.736;2023-05-10T14:05:22;1.33;;;0.73;;
28483;SDS011;15704;48.834;8.736;2023-05-10T14:07:51;3.38;;;0.50;;
28483;SDS011;15704;48.834;8.736;2023-05-10T14:10:18;1.85;;;0.57;;
28483;SDS011;15704;48.834;8.736;2023-05-10T14:12:46;4.50;;;0.55;;
28483;SDS011;15704;48.834;8.736;2023-05-10T14:15:12;2.83;;;0.60;;
28483;SDS011;15704;48.834;8.736;2023-05-10T14:17:39;2.05;;;0.70;;
28483;SDS011;15704;48.834;8.736;2023-05-10T14:20:07;1.10;;;0.40;;
28483;SDS011;15704;48.834;8.736;2023-05-10T14:22:34;3.20;;;1.05;;
28483;SDS011;15704;48.834;8.736;2023-05-10T14:25:01;3.13;;;1.13;;
28483;SDS011;15704;48.834;8.736;2023-05-10T14:27:28;2.33;;;0.40;;
28483;SDS011;15704;48.834;8.736;2023-05-10T14:29:55;2.85;;;0.40;;
28483;SDS011;15704;48.834;8.736;2023-05-10T14:32:21;2.58;;;0.40;;
28483;SDS011;15704;48.834;8.736;2023-05-10T14:34:48;5.22;;;0.43;;
28483;SDS011;15704;48.834;8.736;2023-05-10T14:37:15;1.25;;;0.45;;
28483;SDS011;15704;48.834;8.736;2023-05-10T14:39:42;1.08;;;0.52;;
28483;SDS011;15704;48.834;8.736;2023-05-10T14:42:09;5.03;;;0.50;;
28483;SDS011;15704;48.834;8.736;2023-05-10T14:44:36;0.17;;;0.17;;
28483;SDS011;15704;48.834;8.736;2023-05-10T14:47:05;3.65;;;0.55;;
28483;SDS011;15704;48.834;8.736;2023-05-10T14:49:33;2.58;;;0.68;;
28483;SDS011;15704;48.834;8.736;2023-05-10T14:52:00;1.35;;;0.50;;
28483;SDS011;15704;48.834;8.736;2023-05-10T14:54:27;0.63;;;0.32;;
28483;SDS011;15704;48.834;8.736;2023-05-10T14:56:53;2.28;;;0.63;;
28483;SDS011;15704;48.834;8.736;2023-05-10T14:59:20;3.22;;;0.40;;
28483;SDS011;15704;48.834;8.736;2023-05-10T15:01:47;1.67;;;0.47;;
28483;SDS011;15704;48.834;8.736;2023-05-10T15:04:15;3.22;;;0.40;;
28483;SDS011;15704;48.834;8.736;2023-05-10T15:06:43;1.60;;;0.50;;
28483;SDS011;15704;48.834;8.736;2023-05-10T15:09:09;1.60;;;0.47;;
28483;SDS011;15704;48.834;8.736;2023-05-10T15:11:36;2.10;;;0.35;;
28483;SDS011;15704;48.834;8.736;2023-05-10T15:14:03;0.75;;;0.25;;
28483;SDS011;15704;48.834;8.736;2023-05-10T15:16:29;0.57;;;0.38;;
28483;SDS011;15704;48.834;8.736;2023-05-10T15:19:00;2.20;;;0.65;;
28483;SDS011;15704;48.834;8.736;2023-05-10T15:21:27;0.32;;;0.30;;
28483;SDS011;15704;48.834;8.736;2023-05-10T15:23:54;1.00;;;0.43;;
28483;SDS011;15704;48.834;8.736;2023-05-10T15:26:21;6.72;;;0.38;;
28483;SDS011;15704;48.834;8.736;2023-05-10T15:28:48;0.75;;;0.47;;
28483;SDS011;15704;48.834;8.736;2023-05-10T15:31:15;0.88;;;0.40;;